Informes de METARS cercanos

 

LEAL - Alicante/El Alte, Spain
Distance from station: SSE 60km
Actualización: 26/05/2024 10:30
Despejado
Despejado
 Viento del S
Viento: S 7 km/h
Temperatura: 23°C
Rocío: 16°C
Humedad: 65%
Barómetro: 1018 hPa
Resumen: Despejado
Visibility: greater than 10 km
2024/05/26 08:30 LEAL 260830Z 18004KT 080V230 CAVOK 23/16 Q1018 NOSIG
LEVC - Valencia (civ/Mi, Spain
Distance from station: NNE 84km
Actualización: 26/05/2024 10:30
Despejado
Despejado
 Viento del varies
Viento: varies 4 km/h
Temperatura: 22°C
Rocío: 14°C
Humedad: 61%
Barómetro: 1018 hPa
Resumen: Despejado
Visibility: greater than 10 km
2024/05/26 08:30 LEVC 260830Z VRB02KT CAVOK 22/14 Q1018 NOSIG
 
LEAB - Albacete (civ/Mi, Spain
Distance from station: O 95km
Actualización: 26/05/2024 10:30
Despejado
Despejado
 Viento del varies
Viento: varies 4 km/h
Temperatura: 24°C
Rocío: 8°C
Humedad: 36%
Barómetro: 1020 hPa
Resumen: Despejado
Visibility: greater than 10 km
2024/05/26 08:30 LEAB 260830Z VRB02KT CAVOK 24/08 Q1020 NOSIG
LERI - Alcantarilla(Sp-, Spain
Distance from station: SSO 100km
Actualización: 26/05/2024 10:30
Despejado
Despejado
 Viento del varies
Viento: varies 4 km/h
Temperatura: 22°C
Rocío: 15°C
Humedad: 65%
Barómetro: 1018 hPa
Resumen: Despejado
Visibility: greater than 10 km
2024/05/26 08:30 LERI 260830Z VRB02KT CAVOK 22/15 Q1018 NOSIG
 
LELC - San Javier(Mil/C, Spain
Distance from station: S 113km
Actualización: 26/05/2024 10:30
Despejado
Despejado
 Viento del ENE
Viento: ENE 9 km/h
Temperatura: 23°C
Rocío: 18°C
Humedad: 74%
Barómetro: 1018 hPa
Resumen: Despejado
Visibility: greater than 10 km
2024/05/26 08:30 LELC 260830Z 06005KT 020V120 CAVOK 23/18 Q1018 NOSIG
LEIB - Ibiza/Es Codola, Spain
Distance from station: E 186km
Actualización: 26/05/2024 10:30
Muy nuboso
Muy nuboso
 Viento del E
Viento: E 9 km/h
Temperatura: 22°C
Rocío: 17°C
Humedad: 73%
Barómetro: 1018 hPa
Clouds: Muy nuboso
Visibility: 10 km
Cloud details: Muy nuboso 396 m
2024/05/26 08:30 LEIB 260830Z 09005KT 050V160 9999 BKN013 22/17 Q1018 NOSIG
 
LEAM - Almeria Airport, Spain
Distance from station: SSO 256km
Actualización: 26/05/2024 10:30
Despejado
Despejado
 Viento del S
Viento: S 20 km/h
Temperatura: 22°C
Rocío: 17°C
Humedad: 73%
Barómetro: 1017 hPa
Resumen: Despejado
Visibility: greater than 10 km
2024/05/26 08:30 LEAM 260830Z 17011KT 130V200 CAVOK 22/17 Q1017
LEMD - Madrid/Barajas, Spain
Distance from station: NO 305km
Actualización: 26/05/2024 10:30
Despejado
Despejado
 Viento del SSO
Viento: SSO 4 km/h
Temperatura: 20°C
Rocío: 4°C
Humedad: 35%
Barómetro: 1019 hPa
Resumen: Despejado
Visibility: greater than 10 km
2024/05/26 08:30 LEMD 260830Z 21002KT CAVOK 20/04 Q1019 NOSIG
 
LEPA - Palma De Mallorc, Spain
Distance from station: ENE 313km
Actualización: 26/05/2024 10:30
Poco nuboso
Poco nuboso
 Viento del SO
Viento: SO 9 km/h
Temperatura: 23°C
Rocío: 18°C
Humedad: 74%
Barómetro: 1018 hPa
Clouds: Poco nuboso
Visibility: 10 km
Cloud details: Poco nuboso 610 m
2024/05/26 08:30 LEPA 260830Z 22005KT 9999 FEW020 23/18 Q1018 NOSIG